Time;durP1;ratioP1;P1;durP2;ratioP2;P2;SDS_P1;SDS_P2;PMS_P1;PMS_P2;Temp;Humidity;BMP_temperature;BMP_pressure;BME280_temperature;BME280_humidity;BME280_pressure;Samples;Min_cycle;Max_cycle;Signal;HPM_P1;HPM_P2
2023/09/07 00:00:48;;;;;;;2.67;2.47;;;22.40;57.30;;;;;;5034921;28;20214;-81
2023/09/07 00:03:15;;;;;;;2.65;2.45;;;22.50;57.30;;;;;;5033163;28;20207;-81
2023/09/07 00:05:42;;;;;;;2.65;2.45;;;22.50;57.30;;;;;;5033102;28;20212;-81
2023/09/07 00:08:09;;;;;;;3.85;2.60;;;22.50;57.30;;;;;;5033882;28;20294;-81
2023/09/07 00:10:36;;;;;;;2.70;2.50;;;22.40;57.00;;;;;;5033938;28;20204;-81
2023/09/07 00:13:04;;;;;;;2.53;2.33;;;22.40;57.30;;;;;;5035155;28;20207;-82
2023/09/07 00:15:36;;;;;;;2.88;2.50;;;22.40;57.20;;;;;;5034160;28;20223;-82
2023/09/07 00:18:03;;;;;;;4.20;2.70;;;22.40;57.00;;;;;;5034405;28;20192;-82
2023/09/07 00:20:29;;;;;;;2.53;2.30;;;22.40;57.20;;;;;;5033613;28;20203;-85
2023/09/07 00:22:57;;;;;;;2.85;2.45;;;22.40;57.20;;;;;;5033840;28;20203;-82
2023/09/07 00:25:23;;;;;;;2.97;2.58;;;22.40;57.20;;;;;;5033815;28;20235;-82
2023/09/07 00:27:51;;;;;;;3.72;2.60;;;22.40;57.30;;;;;;5034095;28;20204;-82
2023/09/07 00:30:19;;;;;;;2.85;2.65;;;22.30;56.90;;;;;;5033982;28;20199;-82
2023/09/07 00:32:46;;;;;;;2.80;2.60;;;22.40;57.10;;;;;;5035672;28;20220;-82
2023/09/07 00:35:13;;;;;;;2.97;2.78;;;22.30;57.10;;;;;;5038714;28;20215;-82
2023/09/07 00:37:40;;;;;;;3.10;2.55;;;22.30;57.10;;;;;;5037278;28;20212;-82
2023/09/07 00:40:09;;;;;;;2.55;2.35;;;22.30;57.10;;;;;;5037310;28;20204;-82
2023/09/07 00:42:37;;;;;;;3.97;2.47;;;22.30;57.10;;;;;;5037250;28;20226;-82
2023/09/07 00:45:04;;;;;;;2.60;2.40;;;22.30;57.10;;;;;;5038557;28;20584;-82
2023/09/07 00:47:33;;;;;;;3.25;2.67;;;22.30;57.10;;;;;;5039430;28;20219;-82
2023/09/07 00:50:00;;;;;;;2.90;2.70;;;22.30;57.20;;;;;;5036172;28;20597;-82
2023/09/07 00:52:27;;;;;;;2.60;2.40;;;22.30;57.00;;;;;;5039587;28;20196;-82
2023/09/07 00:54:54;;;;;;;2.90;2.70;;;22.30;57.10;;;;;;5040163;28;20208;-82
2023/09/07 00:57:21;;;;;;;2.67;2.47;;;22.20;57.10;;;;;;5037434;28;20315;-82
2023/09/07 00:59:48;;;;;;;2.80;2.50;;;22.20;57.00;;;;;;5037631;28;20642;-82
2023/09/07 01:02:15;;;;;;;2.90;2.70;;;22.20;57.10;;;;;;5038938;28;20295;-81
2023/09/07 01:04:44;;;;;;;2.65;2.45;;;22.20;57.00;;;;;;5037769;28;20223;-81
2023/09/07 01:07:14;;;;;;;2.83;2.63;;;22.20;57.00;;;;;;5052496;28;20199;-81
2023/09/07 01:09:42;;;;;;;2.88;2.60;;;22.20;57.00;;;;;;5058002;28;20196;-81
2023/09/07 01:12:10;;;;;;;3.20;2.72;;;22.20;57.00;;;;;;5045962;28;20287;-81
2023/09/07 01:14:37;;;;;;;3.78;2.75;;;22.20;57.00;;;;;;5036135;28;20246;-82
2023/09/07 01:17:05;;;;;;;4.03;2.80;;;22.10;57.10;;;;;;5036184;28;20223;-81
2023/09/07 01:19:32;;;;;;;2.65;2.45;;;22.20;57.00;;;;;;5036382;28;20200;-81
2023/09/07 01:22:00;;;;;;;2.83;2.60;;;22.10;57.00;;;;;;5036636;28;20251;-81
2023/09/07 01:24:29;;;;;;;2.70;2.50;;;22.10;56.90;;;;;;5036333;28;20219;-81
2023/09/07 01:26:57;;;;;;;2.60;2.40;;;22.10;57.10;;;;;;5036368;28;20195;-81
2023/09/07 01:29:24;;;;;;;2.70;2.50;;;22.10;56.90;;;;;;5035741;28;20642;-81
2023/09/07 01:31:51;;;;;;;2.75;2.55;;;22.10;56.90;;;;;;5036108;28;20297;-81
2023/09/07 01:34:18;;;;;;;3.00;2.63;;;22.10;56.90;;;;;;5036147;28;20220;-81
2023/09/07 01:36:45;;;;;;;2.70;2.50;;;22.10;57.00;;;;;;5035996;28;20604;-81
2023/09/07 01:39:13;;;;;;;3.50;2.70;;;22.10;57.10;;;;;;5035985;28;20214;-81
2023/09/07 01:41:40;;;;;;;2.88;2.67;;;22.10;57.30;;;;;;5037885;28;20200;-81
2023/09/07 01:44:08;;;;;;;2.70;2.50;;;22.10;57.20;;;;;;5037362;28;20717;-81
2023/09/07 01:46:35;;;;;;;2.50;2.30;;;22.00;57.20;;;;;;5036965;28;20250;-81
2023/09/07 01:49:03;;;;;;;2.65;2.45;;;22.00;57.10;;;;;;5037222;28;20700;-81
2023/09/07 01:51:29;;;;;;;3.55;2.70;;;22.00;57.10;;;;;;5032680;28;20235;-81
2023/09/07 01:53:57;;;;;;;3.05;2.85;;;22.00;57.10;;;;;;5035908;28;20220;-81
2023/09/07 01:56:25;;;;;;;2.78;2.58;;;22.00;57.10;;;;;;5036009;28;20616;-81
2023/09/07 01:58:52;;;;;;;3.08;2.70;;;22.00;57.10;;;;;;5036104;28;20262;-83
2023/09/07 02:01:23;;;;;;;2.80;2.60;;;22.00;57.10;;;;;;5036650;28;20279;-82
2023/09/07 02:03:50;;;;;;;2.70;2.50;;;22.00;57.10;;;;;;5036178;28;20216;-82
2023/09/07 02:06:18;;;;;;;3.33;2.83;;;22.00;57.20;;;;;;5035555;28;20192;-82
2023/09/07 02:08:45;;;;;;;3.88;2.83;;;21.90;57.00;;;;;;5035365;28;20263;-82
2023/09/07 02:11:12;;;;;;;2.95;2.75;;;22.00;57.10;;;;;;5019094;28;20195;-82
2023/09/07 02:13:42;;;;;;;3.17;2.90;;;22.00;57.20;;;;;;5035648;28;20220;-82
2023/09/07 02:16:09;;;;;;;3.00;2.70;;;21.90;57.10;;;;;;5018913;28;20290;-82
2023/09/07 02:18:37;;;;;;;3.47;2.60;;;21.90;57.10;;;;;;5018867;28;20275;-82
2023/09/07 02:21:04;;;;;;;2.72;2.53;;;21.90;57.10;;;;;;5036242;28;20642;-82
2023/09/07 02:23:32;;;;;;;2.90;2.70;;;21.90;57.10;;;;;;5035869;28;20200;-82
2023/09/07 02:25:59;;;;;;;3.00;2.80;;;21.90;57.20;;;;;;5035032;28;20199;-82
2023/09/07 02:28:26;;;;;;;2.80;2.60;;;21.90;57.10;;;;;;5036204;28;20214;-82
2023/09/07 02:30:55;;;;;;;4.15;3.05;;;21.90;57.10;;;;;;5018435;28;20203;-82
2023/09/07 02:33:22;;;;;;;3.20;2.80;;;21.90;57.10;;;;;;5035106;28;20196;-82
2023/09/07 02:35:49;;;;;;;2.67;2.47;;;21.90;57.10;;;;;;5035001;28;20238;-81
2023/09/07 02:38:17;;;;;;;4.32;3.05;;;21.80;57.10;;;;;;5035200;28;20227;-82
2023/09/07 02:40:44;;;;;;;2.90;2.70;;;21.80;57.10;;;;;;5035253;28;20227;-81
2023/09/07 02:43:11;;;;;;;2.80;2.60;;;21.80;57.00;;;;;;5035278;28;20211;-81
2023/09/07 02:45:39;;;;;;;3.30;3.00;;;21.80;57.00;;;;;;5034687;28;20208;-81
2023/09/07 02:48:08;;;;;;;3.95;2.85;;;21.80;57.10;;;;;;5034630;28;20207;-81
2023/09/07 02:50:36;;;;;;;3.40;3.10;;;21.80;57.00;;;;;;5031095;28;20227;-81
2023/09/07 02:53:04;;;;;;;2.60;2.40;;;21.80;57.10;;;;;;5034553;28;20198;-81
2023/09/07 02:55:32;;;;;;;3.17;2.88;;;21.80;57.00;;;;;;5033609;28;20290;-81
2023/09/07 02:57:59;;;;;;;3.13;2.92;;;21.80;57.10;;;;;;5034518;28;20234;-81
2023/09/07 03:00:27;;;;;;;3.30;2.80;;;21.80;57.10;;;;;;5034519;28;20199;-81
2023/09/07 03:02:54;;;;;;;3.65;3.25;;;21.80;56.90;;;;;;5035503;28;20227;-81
2023/09/07 03:05:22;;;;;;;3.97;3.03;;;21.80;56.90;;;;;;5035812;28;20220;-81
2023/09/07 03:07:49;;;;;;;3.58;3.08;;;21.70;56.90;;;;;;5035529;28;20590;-82
2023/09/07 03:10:19;;;;;;;3.45;3.15;;;21.70;56.70;;;;;;5035581;28;20561;-81
2023/09/07 03:12:46;;;;;;;3.50;2.92;;;21.70;56.40;;;;;;5036277;28;20200;-81
2023/09/07 03:15:13;;;;;;;4.07;3.40;;;21.70;56.30;;;;;;5035231;28;20216;-81
2023/09/07 03:17:42;;;;;;;3.38;2.97;;;21.70;56.30;;;;;;5035105;28;20274;-81
2023/09/07 03:20:13;;;;;;;4.20;3.15;;;21.70;56.20;;;;;;5019555;28;20278;-81
2023/09/07 03:22:45;;;;;;;3.40;3.10;;;21.70;56.20;;;;;;5034179;28;20259;-81
2023/09/07 03:25:13;;;;;;;3.40;3.10;;;21.80;56.00;;;;;;5034747;28;20216;-81
2023/09/07 03:27:41;;;;;;;3.38;3.08;;;21.80;56.00;;;;;;5018458;28;20564;-81
2023/09/07 03:30:11;;;;;;;3.53;3.22;;;21.90;56.00;;;;;;5017638;28;20602;-81
2023/09/07 03:32:39;;;;;;;3.25;2.95;;;21.90;55.90;;;;;;5034648;28;20196;-81
2023/09/07 03:35:09;;;;;;;3.40;3.10;;;21.90;55.70;;;;;;5036850;28;20286;-81
2023/09/07 03:37:37;;;;;;;3.42;3.13;;;21.90;55.60;;;;;;5033104;28;20567;-81
2023/09/07 03:40:08;;;;;;;3.22;3.03;;;22.00;55.60;;;;;;5033834;28;20203;-83
2023/09/07 03:42:37;;;;;;;3.58;3.28;;;22.00;55.70;;;;;;5035011;28;20206;-82
2023/09/07 03:45:05;;;;;;;3.17;2.97;;;22.00;55.50;;;;;;5034383;28;20628;-82
2023/09/07 03:47:33;;;;;;;3.90;3.30;;;22.00;55.40;;;;;;5034639;28;20192;-82
2023/09/07 03:50:02;;;;;;;4.07;3.67;;;22.00;55.50;;;;;;5036734;28;20677;-81
2023/09/07 03:52:31;;;;;;;3.63;3.15;;;22.00;55.30;;;;;;5031846;28;20569;-81
2023/09/07 03:55:00;;;;;;;3.75;3.45;;;22.10;55.40;;;;;;5035858;28;20220;-81
2023/09/07 03:57:29;;;;;;;3.63;3.20;;;22.00;55.40;;;;;;5034951;28;20208;-81
2023/09/07 03:59:57;;;;;;;3.50;3.20;;;22.00;55.40;;;;;;5035046;28;20250;-81
2023/09/07 04:02:24;;;;;;;3.55;3.25;;;22.00;55.40;;;;;;5034729;28;20282;-81
2023/09/07 04:04:51;;;;;;;3.80;3.50;;;22.00;55.40;;;;;;5035346;28;20226;-81
2023/09/07 04:07:18;;;;;;;3.70;3.40;;;22.00;55.40;;;;;;5036288;28;20682;-81
2023/09/07 04:09:45;;;;;;;3.60;3.30;;;21.90;55.20;;;;;;5039216;28;20287;-81
2023/09/07 04:12:13;;;;;;;3.83;3.05;;;22.00;55.30;;;;;;5040040;28;20200;-81
2023/09/07 04:14:42;;;;;;;3.80;3.38;;;22.00;55.30;;;;;;5039768;28;20632;-81
2023/09/07 04:17:09;;;;;;;3.88;3.58;;;21.90;55.20;;;;;;5038190;28;20590;-81
2023/09/07 04:19:36;;;;;;;3.80;3.22;;;22.00;55.30;;;;;;5038705;28;20204;-82
2023/09/07 04:22:03;;;;;;;4.45;3.58;;;22.00;55.20;;;;;;5039554;28;20207;-82
2023/09/07 04:24:31;;;;;;;3.47;3.17;;;21.90;55.20;;;;;;5038940;28;20227;-82
2023/09/07 04:26:59;;;;;;;3.53;3.22;;;21.90;55.10;;;;;;5036896;28;20250;-82
2023/09/07 04:29:26;;;;;;;4.30;3.63;;;21.90;55.00;;;;;;5040266;28;20192;-82
2023/09/07 04:31:54;;;;;;;4.55;4.15;;;21.90;55.00;;;;;;5050576;28;20207;-82
2023/09/07 04:34:22;;;;;;;4.13;3.55;;;21.80;55.40;;;;;;5039210;28;20681;-82
2023/09/07 04:36:50;;;;;;;4.55;3.85;;;21.90;55.70;;;;;;5032707;28;20210;-81
2023/09/07 04:39:18;;;;;;;3.90;3.45;;;21.80;55.60;;;;;;5039434;28;20291;-80
2023/09/07 04:41:45;;;;;;;3.75;3.45;;;21.80;55.20;;;;;;5037104;28;20646;-80
2023/09/07 04:44:12;;;;;;;3.83;3.53;;;21.80;55.10;;;;;;5037076;28;20379;-79
2023/09/07 04:46:39;;;;;;;3.97;3.58;;;21.80;54.90;;;;;;5020421;28;20303;-79
2023/09/07 04:49:08;;;;;;;4.07;3.67;;;21.80;55.30;;;;;;5036713;28;20188;-80
2023/09/07 04:51:35;;;;;;;5.80;3.80;;;21.70;54.10;;;;;;5038223;28;20287;-80
2023/09/07 04:54:03;;;;;;;6.85;3.60;;;21.70;53.90;;;;;;5041717;28;20227;-80
2023/09/07 04:56:31;;;;;;;4.68;3.58;;;21.70;53.90;;;;;;5038814;28;20206;-80
2023/09/07 04:58:58;;;;;;;3.92;3.53;;;21.60;53.70;;;;;;5041055;28;20247;-80
2023/09/07 05:01:26;;;;;;;3.90;3.50;;;21.60;53.70;;;;;;5021971;28;20291;-80
2023/09/07 05:03:55;;;;;;;4.57;3.53;;;21.50;53.80;;;;;;5020903;28;20223;-80
2023/09/07 05:06:23;;;;;;;5.20;3.97;;;21.50;53.70;;;;;;5036491;28;20246;-80
2023/09/07 05:08:50;;;;;;;4.20;3.83;;;21.50;53.70;;;;;;5036571;28;20198;-80
2023/09/07 05:11:17;;;;;;;4.60;3.70;;;21.50;53.70;;;;;;5036295;28;20646;-80
2023/09/07 05:13:44;;;;;;;4.07;3.50;;;21.40;53.90;;;;;;5035855;28;20220;-80
2023/09/07 05:16:12;;;;;;;6.10;3.80;;;21.50;54.10;;;;;;5035815;28;20239;-80
2023/09/07 05:18:39;;;;;;;3.92;3.58;;;21.40;54.00;;;;;;5035945;28;20627;-82
2023/09/07 05:21:13;;;;;;;3.90;3.58;;;21.30;53.90;;;;;;5036811;28;20200;-82
2023/09/07 05:23:42;;;;;;;5.40;3.78;;;21.30;53.90;;;;;;5036821;28;20694;-82
2023/09/07 05:26:09;;;;;;;4.30;3.70;;;21.30;54.30;;;;;;5020967;28;20211;-82
2023/09/07 05:28:36;;;;;;;4.28;3.88;;;21.30;54.50;;;;;;5039639;28;20260;-83
2023/09/07 05:31:04;;;;;;;4.55;4.00;;;21.30;54.50;;;;;;5038632;28;20234;-83
2023/09/07 05:33:31;;;;;;;3.55;3.25;;;21.30;54.60;;;;;;5021855;28;20192;-84
2023/09/07 05:35:59;;;;;;;4.03;3.63;;;21.30;54.70;;;;;;5037895;28;20223;-83
2023/09/07 05:38:25;;;;;;;5.10;3.50;;;21.30;54.80;;;;;;5038035;28;20220;-82
2023/09/07 05:40:54;;;;;;;4.18;3.78;;;21.30;54.90;;;;;;5039540;28;20184;-82
2023/09/07 05:43:23;;;;;;;5.07;3.90;;;21.30;55.00;;;;;;5037342;28;20200;-82
2023/09/07 05:45:50;;;;;;;8.02;4.15;;;21.30;55.30;;;;;;5021286;28;20196;-81
2023/09/07 05:48:18;;;;;;;4.50;3.80;;;21.40;55.70;;;;;;5032188;28;20206;-80
2023/09/07 05:50:45;;;;;;;4.95;3.47;;;21.40;55.70;;;;;;5038240;28;20677;-80
2023/09/07 05:53:13;;;;;;;3.95;3.30;;;21.50;55.70;;;;;;5038502;28;20192;-80
2023/09/07 05:55:40;;;;;;;4.38;3.40;;;21.60;55.40;;;;;;5037900;28;20226;-80
2023/09/07 05:58:09;;;;;;;3.78;3.47;;;21.60;55.20;;;;;;5038168;28;20212;-80
2023/09/07 06:00:41;;;;;;;4.20;3.80;;;21.70;55.10;;;;;;5038866;28;20199;-80
2023/09/07 06:03:09;;;;;;;4.15;3.78;;;21.80;54.90;;;;;;5022724;28;20188;-80
2023/09/07 06:05:36;;;;;;;4.43;3.28;;;21.90;54.70;;;;;;5038451;28;20303;-80
2023/09/07 06:08:06;;;;;;;3.78;3.47;;;22.00;54.40;;;;;;5039062;28;20540;-80
2023/09/07 06:10:33;;;;;;;3.90;3.33;;;22.00;54.10;;;;;;5039397;28;20538;-80
2023/09/07 06:13:00;;;;;;;4.15;3.75;;;22.10;54.10;;;;;;5038277;28;20663;-80
2023/09/07 06:15:30;;;;;;;4.07;3.60;;;22.10;54.20;;;;;;5037270;28;20216;-80
2023/09/07 06:17:57;;;;;;;3.80;3.50;;;22.10;54.10;;;;;;5020918;28;20220;-80
2023/09/07 06:20:25;;;;;;;3.70;3.40;;;22.10;54.20;;;;;;5038031;28;20196;-80
2023/09/07 06:22:52;;;;;;;4.65;3.47;;;22.20;54.20;;;;;;5038119;28;20200;-80
2023/09/07 06:25:21;;;;;;;3.75;3.42;;;22.30;54.10;;;;;;5038269;28;20547;-80
2023/09/07 06:27:49;;;;;;;3.67;3.38;;;22.50;53.60;;;;;;5021867;28;20207;-80
2023/09/07 06:30:16;;;;;;;3.25;3.05;;;22.70;53.40;;;;;;5036409;28;20262;-80
2023/09/07 06:32:45;;;;;;;3.70;3.33;;;22.90;52.90;;;;;;5021023;28;20196;-80
2023/09/07 06:35:12;;;;;;;3.42;3.13;;;23.10;52.60;;;;;;5038214;28;20311;-80
2023/09/07 06:37:40;;;;;;;3.67;3.38;;;23.30;52.20;;;;;;5037829;28;20200;-80
2023/09/07 06:40:10;;;;;;;4.97;3.40;;;23.50;51.80;;;;;;5037904;28;20208;-80
2023/09/07 06:42:38;;;;;;;5.07;3.63;;;23.60;51.40;;;;;;5036959;28;20326;-80
2023/09/07 06:45:11;;;;;;;3.60;3.30;;;23.80;51.10;;;;;;5038136;28;20555;-80
2023/09/07 06:47:40;;;;;;;3.55;3.25;;;24.00;50.90;;;;;;5020692;28;20195;-80
2023/09/07 06:50:11;;;;;;;3.55;3.25;;;24.10;50.60;;;;;;5036579;28;20188;-80
2023/09/07 06:52:38;;;;;;;3.60;3.30;;;24.30;50.40;;;;;;5021730;28;20220;-81
2023/09/07 06:55:06;;;;;;;3.95;3.40;;;24.40;50.10;;;;;;5038790;28;20253;-81
2023/09/07 06:57:34;;;;;;;4.43;3.50;;;24.50;50.00;;;;;;5038525;28;20197;-81
2023/09/07 07:00:05;;;;;;;4.75;3.40;;;24.60;49.80;;;;;;5037659;28;20544;-81
2023/09/07 07:02:32;;;;;;;3.78;3.45;;;24.70;49.60;;;;;;5020368;28;20229;-81
2023/09/07 07:04:59;;;;;;;3.88;3.20;;;24.80;49.60;;;;;;5036633;28;20250;-81
2023/09/07 07:07:29;;;;;;;4.03;3.63;;;24.90;49.80;;;;;;5037342;28;20631;-81
2023/09/07 07:09:57;;;;;;;5.13;3.85;;;24.90;49.30;;;;;;5034769;28;20204;-81
2023/09/07 07:12:24;;;;;;;4.00;3.60;;;25.00;49.20;;;;;;5018455;28;20250;-81
2023/09/07 07:14:51;;;;;;;4.63;3.40;;;25.10;49.10;;;;;;5034332;28;20660;-81
2023/09/07 07:17:18;;;;;;;4.68;3.70;;;25.10;48.90;;;;;;5035564;28;20696;-81
2023/09/07 07:19:45;;;;;;;3.55;3.25;;;25.20;48.90;;;;;;5035048;28;20235;-81
2023/09/07 07:22:13;;;;;;;4.25;3.45;;;25.30;48.70;;;;;;5035108;28;20653;-81
2023/09/07 07:24:42;;;;;;;5.85;3.60;;;25.40;48.70;;;;;;5018498;28;20224;-81
2023/09/07 07:27:10;;;;;;;3.65;3.28;;;25.40;48.50;;;;;;5035990;28;20654;-81
2023/09/07 07:29:38;;;;;;;4.05;3.33;;;25.50;48.40;;;;;;5034857;28;20208;-81
2023/09/07 07:32:05;;;;;;;4.13;3.60;;;25.60;48.30;;;;;;5018081;28;20558;-80
2023/09/07 07:34:33;;;;;;;5.10;3.47;;;25.60;48.20;;;;;;5034575;28;20212;-80
2023/09/07 07:37:01;;;;;;;6.28;3.70;;;25.70;48.10;;;;;;5034508;28;20207;-80
2023/09/07 07:39:28;;;;;;;4.97;3.40;;;25.80;48.00;;;;;;5034634;28;20224;-80
2023/09/07 07:41:57;;;;;;;3.65;3.20;;;25.80;47.80;;;;;;5034619;28;20208;-80
2023/09/07 07:44:24;;;;;;;4.15;3.33;;;25.90;47.70;;;;;;5034539;28;20583;-80
2023/09/07 07:46:52;;;;;;;5.50;3.90;;;26.00;47.70;;;;;;5034269;28;20573;-81
2023/09/07 07:49:19;;;;;;;4.07;3.67;;;26.00;47.60;;;;;;5033793;28;20195;-81
2023/09/07 07:51:47;;;;;;;5.05;3.53;;;26.10;47.80;;;;;;5034070;28;20661;-81
2023/09/07 07:54:15;;;;;;;4.75;3.70;;;26.20;47.80;;;;;;5034753;28;20223;-81
2023/09/07 07:56:42;;;;;;;4.57;3.65;;;26.20;47.70;;;;;;5037279;28;20198;-81
2023/09/07 07:59:11;;;;;;;4.03;3.20;;;26.30;47.80;;;;;;5035573;28;20211;-81
2023/09/07 08:01:38;;;;;;;4.93;3.40;;;26.30;47.70;;;;;;5036475;28;20219;-81
2023/09/07 08:04:07;;;;;;;3.45;3.15;;;26.40;47.70;;;;;;5037231;28;20211;-81
2023/09/07 08:06:35;;;;;;;5.35;3.90;;;26.50;47.70;;;;;;5031847;28;20202;-81
2023/09/07 08:09:03;;;;;;;3.97;3.58;;;26.50;47.50;;;;;;5043683;28;20192;-81
2023/09/07 08:11:30;;;;;;;4.55;3.47;;;26.50;47.50;;;;;;5034924;28;20569;-81
2023/09/07 08:13:58;;;;;;;4.28;3.15;;;26.60;47.50;;;;;;5035439;28;20219;-81
2023/09/07 08:16:26;;;;;;;4.00;3.50;;;26.60;47.30;;;;;;5035148;28;20222;-81
2023/09/07 08:18:54;;;;;;;4.15;3.75;;;26.70;47.30;;;;;;5018234;28;20307;-81
2023/09/07 08:21:21;;;;;;;4.00;3.42;;;26.70;47.20;;;;;;5017759;28;20205;-81
2023/09/07 08:23:48;;;;;;;4.63;3.35;;;26.80;47.10;;;;;;5017097;28;20306;-81
2023/09/07 08:26:17;;;;;;;3.45;3.15;;;26.80;47.00;;;;;;5033326;28;20192;-81
2023/09/07 08:28:47;;;;;;;3.60;3.30;;;26.80;47.00;;;;;;5033140;28;20195;-81
2023/09/07 08:31:20;;;;;;;4.28;3.83;;;26.80;47.10;;;;;;5017133;28;20290;-81
2023/09/07 08:33:50;;;;;;;4.40;3.30;;;26.90;47.10;;;;;;5033262;28;20226;-81
2023/09/07 08:36:17;;;;;;;3.42;3.13;;;26.80;47.00;;;;;;5033302;28;20206;-81
2023/09/07 08:38:45;;;;;;;3.30;3.00;;;26.90;47.10;;;;;;5049168;23;20266;-82
2023/09/07 08:41:11;;;;;;;4.32;3.30;;;27.00;46.90;;;;;;5017295;28;20206;-82
2023/09/07 08:43:45;;;;;;;3.03;2.80;;;27.00;46.90;;;;;;5017040;28;20227;-82
2023/09/07 08:46:15;;;;;;;4.25;3.30;;;27.00;46.80;;;;;;5016693;28;20187;-82
2023/09/07 08:48:42;;;;;;;3.53;3.22;;;27.00;46.70;;;;;;5016876;28;20184;-82
2023/09/07 08:51:11;;;;;;;3.47;3.17;;;27.10;46.60;;;;;;5016453;28;20195;-82
2023/09/07 08:53:39;;;;;;;3.63;3.10;;;27.20;46.60;;;;;;5018958;28;20242;-82
2023/09/07 08:56:07;;;;;;;4.07;3.30;;;27.10;46.50;;;;;;5020341;28;20195;-82
2023/09/07 08:58:35;;;;;;;3.20;2.88;;;27.10;46.50;;;;;;5020449;28;20261;-82
2023/09/07 09:01:03;;;;;;;3.40;3.10;;;27.20;46.60;;;;;;5019769;28;20301;-82
2023/09/07 09:03:30;;;;;;;3.40;3.00;;;27.20;46.40;;;;;;5003561;28;20202;-82
2023/09/07 09:05:57;;;;;;;4.18;3.22;;;27.20;46.40;;;;;;5020172;28;20254;-82
2023/09/07 09:08:26;;;;;;;3.63;3.33;;;27.20;46.30;;;;;;5020714;28;20203;-82
2023/09/07 09:11:03;;;;;;;3.33;3.03;;;27.30;46.20;;;;;;5019844;28;20233;-82
2023/09/07 09:13:31;;;;;;;3.40;3.10;;;27.30;46.20;;;;;;5022400;28;20188;-82
2023/09/07 09:16:00;;;;;;;3.72;2.97;;;27.30;46.10;;;;;;5023441;28;20617;-82
2023/09/07 09:18:27;;;;;;;3.30;3.00;;;27.30;46.10;;;;;;5020508;28;20196;-82
2023/09/07 09:20:54;;;;;;;3.47;3.17;;;27.30;46.10;;;;;;5020950;28;20719;-82
2023/09/07 09:23:22;;;;;;;3.60;3.22;;;27.40;46.20;;;;;;5019534;28;20204;-82
2023/09/07 09:25:51;;;;;;;3.60;3.30;;;27.40;46.10;;;;;;5002940;28;20603;-82
2023/09/07 09:28:18;;;;;;;3.42;3.15;;;27.40;46.00;;;;;;5019870;28;20191;-82
2023/09/07 09:30:46;;;;;;;3.47;3.17;;;27.40;46.10;;;;;;5003897;28;20609;-82
2023/09/07 09:33:13;;;;;;;3.38;3.08;;;27.40;46.10;;;;;;5019406;28;20203;-82
2023/09/07 09:35:40;;;;;;;4.25;3.03;;;27.40;46.10;;;;;;5019617;28;20288;-82
2023/09/07 09:38:07;;;;;;;3.20;3.00;;;27.40;46.00;;;;;;5019512;28;20195;-82
2023/09/07 09:40:35;;;;;;;3.20;2.88;;;27.40;46.10;;;;;;5019186;28;20227;-82
2023/09/07 09:43:04;;;;;;;3.22;2.83;;;27.40;46.10;;;;;;5019473;28;20286;-82
2023/09/07 09:45:31;;;;;;;3.40;3.10;;;27.40;46.10;;;;;;5019298;28;20222;-82
2023/09/07 09:47:59;;;;;;;3.17;2.95;;;27.40;46.10;;;;;;5019274;28;20282;-82
2023/09/07 09:50:26;;;;;;;3.30;3.00;;;27.40;46.10;;;;;;5019277;28;20213;-82
2023/09/07 09:52:54;;;;;;;3.20;2.90;;;27.30;46.10;;;;;;5019318;28;20203;-82
2023/09/07 09:55:20;;;;;;;3.30;2.95;;;27.30;46.70;;;;;;5019833;28;20258;-82
2023/09/07 09:57:47;;;;;;;3.13;2.92;;;27.30;46.20;;;;;;5020082;28;20199;-82
2023/09/07 10:00:26;;;;;;;3.50;2.70;;;27.40;46.20;;;;;;5019557;28;20265;-82
2023/09/07 10:02:59;;;;;;;3.40;3.10;;;27.30;46.30;;;;;;5019684;28;20281;-82
2023/09/07 10:05:27;;;;;;;3.20;2.90;;;27.30;46.40;;;;;;5018824;28;20765;-82
2023/09/07 10:07:54;;;;;;;3.33;3.03;;;27.30;46.50;;;;;;5019249;28;20188;-82
2023/09/07 10:10:21;;;;;;;3.42;2.90;;;27.30;46.50;;;;;;5018991;28;20231;-82
2023/09/07 10:12:53;;;;;;;3.67;3.20;;;27.20;46.40;;;;;;5018885;28;20245;-83
2023/09/07 10:15:25;;;;;;;2.97;2.67;;;27.30;46.60;;;;;;5020113;28;20281;-83
2023/09/07 10:18:04;;;;;;;3.50;2.70;;;27.20;46.60;;;;;;5037491;28;20222;-82
2023/09/07 10:20:36;;;;;;;3.58;3.08;;;27.20;46.60;;;;;;5037798;28;20658;-82
2023/09/07 10:23:04;;;;;;;3.25;2.95;;;27.20;46.60;;;;;;5019289;28;20199;-82
2023/09/07 10:25:32;;;;;;;3.28;2.97;;;27.20;46.60;;;;;;5019697;28;20219;-84
2023/09/07 10:27:59;;;;;;;2.70;2.50;;;27.20;46.70;;;;;;5019682;28;20201;-82
2023/09/07 10:30:29;;;;;;;3.20;2.90;;;27.20;46.80;;;;;;5003644;28;20207;-82
2023/09/07 10:32:57;;;;;;;3.30;2.92;;;27.10;46.90;;;;;;5018775;28;20210;-82
2023/09/07 10:35:25;;;;;;;3.05;2.80;;;27.10;47.00;;;;;;5019038;28;20227;-82
2023/09/07 10:37:52;;;;;;;3.28;2.97;;;27.10;47.10;;;;;;5018425;28;20675;-82
2023/09/07 10:40:21;;;;;;;3.38;2.92;;;27.00;47.10;;;;;;5022174;28;20223;-83
2023/09/07 10:42:48;;;;;;;3.88;2.72;;;27.00;47.30;;;;;;5012235;28;20203;-82
2023/09/07 10:45:16;;;;;;;3.10;2.90;;;27.00;47.30;;;;;;5021826;28;20277;-82
2023/09/07 10:47:45;;;;;;;3.00;2.80;;;27.00;47.50;;;;;;5018317;28;20223;-81
2023/09/07 10:50:13;;;;;;;3.05;2.85;;;26.90;47.50;;;;;;5018110;28;20202;-82
2023/09/07 10:52:41;;;;;;;3.17;2.83;;;26.90;47.70;;;;;;5018350;28;20644;-82
2023/09/07 10:55:10;;;;;;;3.35;3.05;;;26.90;47.80;;;;;;5018580;28;20246;-82
2023/09/07 10:57:44;;;;;;;3.10;2.80;;;26.90;47.90;;;;;;5018415;28;20195;-82
2023/09/07 11:00:13;;;;;;;3.33;3.03;;;26.80;47.90;;;;;;5018120;28;20211;-82
2023/09/07 11:02:42;;;;;;;3.15;2.85;;;26.80;48.00;;;;;;5018661;28;20188;-82
2023/09/07 11:05:11;;;;;;;3.08;2.88;;;26.80;48.20;;;;;;5018288;28;20616;-82
2023/09/07 11:07:40;;;;;;;2.92;2.72;;;26.60;48.30;;;;;;5018207;28;20291;-82
2023/09/07 11:10:08;;;;;;;2.90;2.70;;;26.70;48.50;;;;;;5018626;28;20214;-82
2023/09/07 11:12:38;;;;;;;2.90;2.70;;;26.60;48.60;;;;;;5018251;28;20199;-82
2023/09/07 11:15:06;;;;;;;3.00;2.72;;;26.60;48.70;;;;;;5018095;28;20266;-81
2023/09/07 11:17:35;;;;;;;2.97;2.75;;;26.60;48.80;;;;;;5017558;28;20239;-82
2023/09/07 11:20:06;;;;;;;3.13;2.83;;;26.60;48.90;;;;;;5018275;28;20305;-82
2023/09/07 11:22:35;;;;;;;2.70;2.50;;;26.60;49.00;;;;;;5017761;28;20191;-82
2023/09/07 11:25:01;;;;;;;3.15;2.90;;;26.60;48.90;;;;;;5018116;28;20218;-82
2023/09/07 11:27:30;;;;;;;3.00;2.80;;;26.60;49.00;;;;;;5017717;28;20223;-82
2023/09/07 11:29:58;;;;;;;2.90;2.60;;;26.50;49.00;;;;;;5017537;28;20199;-82
2023/09/07 11:32:25;;;;;;;3.03;2.83;;;26.60;49.10;;;;;;5017999;28;20192;-82
2023/09/07 11:34:52;;;;;;;2.80;2.60;;;26.50;49.10;;;;;;5017932;28;20215;-82
2023/09/07 11:37:23;;;;;;;3.17;2.92;;;26.60;49.20;;;;;;5018032;28;20199;-82
2023/09/07 11:39:52;;;;;;;2.45;2.35;;;26.50;49.20;;;;;;5020244;28;20223;-82
2023/09/07 11:42:20;;;;;;;2.85;2.65;;;26.50;49.10;;;;;;5018054;28;20234;-82
2023/09/07 11:44:47;;;;;;;2.70;2.50;;;26.60;49.20;;;;;;5017826;28;20255;-82
2023/09/07 11:47:14;;;;;;;2.90;2.70;;;26.60;49.20;;;;;;5017728;28;20231;-82
2023/09/07 11:49:41;;;;;;;3.17;2.88;;;26.60;49.20;;;;;;5017522;28;20192;-82
2023/09/07 11:52:08;;;;;;;3.10;2.80;;;26.60;49.20;;;;;;5017483;28;20242;-82
2023/09/07 11:54:35;;;;;;;2.95;2.75;;;26.60;49.20;;;;;;5035442;28;20208;-82
2023/09/07 11:57:04;;;;;;;2.78;2.58;;;26.60;49.20;;;;;;5017656;28;20543;-82
2023/09/07 11:59:32;;;;;;;3.25;2.95;;;26.60;49.30;;;;;;5017482;28;20270;-82
2023/09/07 12:02:00;;;;;;;2.97;2.65;;;26.60;49.30;;;;;;5018352;28;20195;-82
2023/09/07 12:04:27;;;;;;;2.83;2.63;;;26.60;49.40;;;;;;5018279;28;20215;-82
2023/09/07 12:06:54;;;;;;;2.97;2.67;;;26.60;49.40;;;;;;5018538;28;20199;-82
2023/09/07 12:09:22;;;;;;;2.92;2.50;;;26.60;49.50;;;;;;5017648;28;20195;-82
2023/09/07 12:11:49;;;;;;;3.08;2.78;;;26.60;49.50;;;;;;5018108;28;20195;-82
2023/09/07 12:14:18;;;;;;;3.05;2.55;;;26.60;49.50;;;;;;5018418;28;20219;-82
2023/09/07 12:16:45;;;;;;;2.97;2.78;;;26.60;49.60;;;;;;5018154;28;20195;-82
2023/09/07 12:19:12;;;;;;;2.97;2.78;;;26.60;49.70;;;;;;5017467;28;20618;-82
2023/09/07 12:21:41;;;;;;;2.63;2.42;;;26.60;49.70;;;;;;5017629;28;20195;-82
2023/09/07 12:24:08;;;;;;;2.42;2.22;;;26.60;49.80;;;;;;5017751;28;20223;-82
2023/09/07 12:26:35;;;;;;;3.10;2.90;;;26.50;49.80;;;;;;5019762;28;20241;-82
2023/09/07 12:29:02;;;;;;;3.42;2.33;;;26.60;49.90;;;;;;5020728;28;20230;-82
2023/09/07 12:31:31;;;;;;;2.60;2.40;;;26.50;49.80;;;;;;5022788;28;20638;-82
2023/09/07 12:33:58;;;;;;;2.80;2.60;;;26.50;49.90;;;;;;5022023;28;20285;-82
2023/09/07 12:36:29;;;;;;;2.70;2.50;;;26.50;49.90;;;;;;5022150;28;20200;-82
2023/09/07 12:39:01;;;;;;;3.10;2.80;;;26.50;49.90;;;;;;5021856;28;20257;-82
2023/09/07 12:41:28;;;;;;;3.10;2.80;;;26.50;50.00;;;;;;5022008;28;20215;-82
2023/09/07 12:43:56;;;;;;;2.70;2.50;;;26.50;50.00;;;;;;5022910;28;20223;-82
2023/09/07 12:46:23;;;;;;;2.70;2.50;;;26.50;50.00;;;;;;5021446;28;20199;-82
2023/09/07 12:48:51;;;;;;;2.83;2.63;;;26.50;50.10;;;;;;5022516;28;20263;-81
2023/09/07 12:51:19;;;;;;;2.50;2.35;;;26.50;50.10;;;;;;5021756;28;20282;-82